Last 24 Hours

Pinyon

10 Minute Data | America/Los_Angeles
as of 9/6/26 6:40 AM PDT
Date & Time Temp (°F) Dew Pt (°F) RH (%) Wind Spd (mph) Wind Dir (°) Wind Gust (mph) Wind Gst Dir (°) Daily Max Temp (°F) Daily Min Temp (°F)
9/6/26 - 0640 65.8 60.0 82 5.4 N | 6 6.6 N | 1 71.8 64.8
9/6/26 - 0630 65.5 60.2 83 6.4 N | 354 8.5 N | 354 71.8 64.8
9/6/26 - 0620 65.6 60.2 83 6.5 N | 5 8.8 NNW | 346 71.8 64.8
9/6/26 - 0610 65.8 60.0 81 8.8 NNW | 331 11.4 NNW | 340 71.8 64.8
9/6/26 - 0600 65.8 60.0 82 8.0 NW | 326 10.2 NNW | 328 71.8 64.8
9/6/26 - 0550 65.7 60.0 82 7.7 NNW | 337 11.5 NNW | 340 71.8 64.8
9/6/26 - 0540 65.2 60.2 84 7.7 NNW | 338 10.3 NNW | 330 71.8 64.8
9/6/26 - 0530 65.0 60.4 85 8.9 NNW | 337 11.4 NNW | 337 71.8 64.8
9/6/26 - 0520 65.4 60.2 84 11.9 NNW | 338 17.2 NNW | 346 71.8 64.8
9/6/26 - 0510 65.5 60.3 83 13.6 NNW | 334 18.4 NNW | 348 71.8 64.8
9/6/26 - 0500 65.8 60.2 82 13.6 NNW | 336 20.1 NNW | 336 71.8 64.8
9/6/26 - 0450 65.6 60.1 82 15.5 NNW | 334 20.6 NNW | 334 71.8 64.8
9/6/26 - 0440 65.0 59.4 82 15.8 NNW | 336 21.3 NNW | 340 71.8 64.8
9/6/26 - 0430 65.2 59.1 80 16.9 NNW | 340 22.1 NNW | 346 71.8 64.9
9/6/26 - 0420 66.1 58.9 78 15.6 NNW | 342 22.3 NNW | 339 71.8 65.9
9/6/26 - 0410 67.0 58.5 74 15.3 NNW | 340 20.8 N | 349 71.8 66.4
9/6/26 - 0400 67.5 58.4 73 15.3 NNW | 336 21.5 NNW | 331 71.8 66.4
9/6/26 - 0350 66.7 59.3 77 13.1 NNW | 329 19.3 NNW | 337 71.8 66.4
9/6/26 - 0340 66.5 59.5 78 12.2 NNW | 327 16.7 NW | 310 71.8 66.4
9/6/26 - 0330 67.4 59.1 75 11.6 NW | 326 17.7 NW | 321 71.8 66.7
9/6/26 - 0320 68.2 59.2 73 7.4 NNW | 344 13.9 NNW | 335 71.8 67.1
9/6/26 - 0310 68.8 59.0 71 8.0 NNW | 343 12.6 N | 354 71.8 67.1
9/6/26 - 0300 68.4 59.3 73 10.7 NNW | 336 14.8 NNW | 332 71.8 67.1
9/6/26 - 0250 67.6 59.7 76 10.7 NNW | 340 15.0 NW | 322 71.8 67.1
9/6/26 - 0240 67.4 59.5 76 11.8 NNW | 335 16.1 NNW | 338 71.8 67.1
9/6/26 - 0230 67.2 59.5 76 13.2 NNW | 331 17.8 NNW | 336 71.8 67.1
9/6/26 - 0220 67.4 59.8 77 14.0 NNW | 340 19.5 NNW | 337 71.8 67.2
9/6/26 - 0210 67.3 60.3 78 13.2 NNW | 344 18.1 N | 4 71.8 67.2
9/6/26 - 0200 67.7 60.4 77 13.2 NNW | 342 19.1 NNW | 338 71.8 67.4
9/6/26 - 0150 68.3 59.8 74 12.8 NNW | 344 17.5 NW | 325 71.8 67.8
9/6/26 - 0140 69.8 58.0 66 14.0 NNW | 337 19.3 NNW | 341 71.8 69.1
9/6/26 - 0130 70.5 56.5 61 12.7 NNW | 336 16.0 NW | 319 71.8 69.9
9/6/26 - 0120 71.3 56.6 60 13.7 NNW | 335 19.1 NW | 325 71.8 71.1
9/6/26 - 0110 71.6 56.6 59 12.0 NNW | 331 18.4 NNW | 336 71.8 71.4
9/6/26 - 0100 71.9 56.8 59 11.0 NNW | 330 15.8 NNW | 330 83.5 63.2
9/6/26 - 0050 71.9 56.5 58 9.3 NNW | 329 12.7 NNW | 344 83.5 63.2
9/6/26 - 0040 72.0 56.2 58 11.0 NNW | 332 16.5 NNW | 334 83.5 63.2
9/6/26 - 0030 72.0 55.8 57 13.2 NW | 325 20.0 NNW | 337 83.5 63.2
9/6/26 - 0020 72.1 55.4 56 12.4 NW | 323 17.4 NW | 316 83.5 63.2
9/6/26 - 0010 72.0 55.5 56 10.5 NW | 320 16.2 NW | 315 83.5 63.2
9/6/26 - 0000 71.8 55.2 56 8.1 NW | 320 15.0 NNW | 341 83.5 63.2
9/5/26 - 2350 71.7 54.6 55 7.3 NNW | 328 11.6 NNW | 348 83.5 63.2
9/5/26 - 2340 71.6 53.5 53 8.7 NNW | 332 15.2 NW | 322 83.5 63.2
9/5/26 - 2330 71.3 52.6 51 9.2 NNW | 332 13.5 NNW | 334 83.5 63.2
9/5/26 - 2320 71.2 51.9 51 9.8 NW | 323 13.8 NNW | 332 83.5 63.2
9/5/26 - 2310 71.0 51.7 50 11.5 NW | 322 16.7 NW | 323 83.5 63.2
9/5/26 - 2300 71.0 51.6 50 11.7 NW | 318 17.5 WNW | 283 83.5 63.2
9/5/26 - 2250 71.0 51.5 50 13.9 NW | 320 21.0 NW | 319 83.5 63.2
9/5/26 - 2240 71.0 51.3 50 13.4 NW | 320 19.0 NNW | 327 83.5 63.2
9/5/26 - 2230 71.1 51.3 50 12.3 NW | 315 18.9 NW | 318 83.5 63.2
9/5/26 - 2220 71.2 51.3 49 12.3 NW | 317 17.5 NW | 322 83.5 63.2
9/5/26 - 2210 71.2 51.2 49 10.1 NW | 316 16.7 NW | 317 83.5 63.2
9/5/26 - 2200 71.4 51.3 49 9.7 NW | 317 14.9 NW | 324 83.5 63.2
9/5/26 - 2150 71.6 51.6 49 11.0 NW | 318 18.0 NW | 314 83.5 63.2
9/5/26 - 2140 71.7 51.9 50 11.0 NW | 317 17.4 NW | 315 83.5 63.2
9/5/26 - 2130 71.7 52.2 50 10.5 NW | 318 17.2 NW | 314 83.5 63.2
9/5/26 - 2120 71.8 52.4 50 11.1 NW | 317 18.2 NW | 319 83.5 63.2
9/5/26 - 2110 71.7 52.0 50 10.9 NW | 322 16.7 NW | 323 83.5 63.2
9/5/26 - 2100 71.8 52.4 51 11.7 NW | 319 17.2 NW | 321 83.5 63.2
9/5/26 - 2050 71.8 52.5 50 13.6 NW | 323 19.5 NW | 323 83.5 63.2
9/5/26 - 2040 71.9 52.4 50 11.7 NNW | 331 17.6 NNW | 332 83.5 63.2
9/5/26 - 2030 72.1 52.2 50 11.9 NNW | 334 18.0 NNW | 331 83.5 63.2
9/5/26 - 2020 72.3 52.2 49 14.9 NNW | 336 21.0 NNW | 332 83.5 63.2
9/5/26 - 2010 72.6 52.0 48 16.5 NNW | 333 25.0 NW | 325 83.5 63.2
9/5/26 - 2000 72.8 51.8 48 17.9 NNW | 333 25.0 NNW | 328 83.5 63.2
9/5/26 - 1950 73.2 51.7 47 18.3 NNW | 336 25.2 NNW | 341 83.5 63.2
9/5/26 - 1940 73.7 51.6 46 16.2 NNW | 338 24.0 NNW | 344 83.5 63.2
9/5/26 - 1930 74.3 52.0 46 17.7 NNW | 336 24.0 NNW | 342 83.5 63.2
9/5/26 - 1920 74.8 52.3 45 16.4 NNW | 333 22.8 NNW | 327 83.5 63.2
9/5/26 - 1910 75.1 52.3 45 14.7 NNW | 330 20.9 NW | 323 83.5 63.2
9/5/26 - 1900 75.6 52.2 44 13.8 NNW | 329 19.1 NNW | 337 83.5 63.2
9/5/26 - 1850 76.1 52.0 43 10.2 NNW | 340 18.0 NNW | 343 83.5 63.2
9/5/26 - 1840 76.4 52.0 43 10.1 N | 353 15.0 N | 4 83.5 63.2
9/5/26 - 1830 76.6 52.1 42 10.1 NNW | 347 16.5 N | 354 83.5 63.2
9/5/26 - 1820 77.0 52.0 42 11.2 NNW | 347 16.2 N | 351 83.5 63.2
9/5/26 - 1810 77.3 51.6 41 11.4 NNW | 332 16.6 NNW | 331 83.5 63.2
9/5/26 - 1800 77.5 51.5 40 11.5 NNW | 340 19.0 NNW | 348 83.5 63.2
9/5/26 - 1750 77.9 51.5 40 14.1 NNW | 339 23.4 NNW | 343 83.5 63.2
9/5/26 - 1740 78.5 51.3 39 13.6 NNW | 335 22.8 N | 11 83.5 63.2
9/5/26 - 1730 78.7 51.6 39 14.0 NNW | 341 22.4 NNW | 334 83.5 63.2
9/5/26 - 1720 78.6 51.1 38 14.1 NNW | 348 21.5 N | 353 83.5 63.2
9/5/26 - 1710 79.2 51.2 38 14.3 N | 351 22.4 N | 351 83.5 63.2
9/5/26 - 1700 78.8 51.1 38 12.7 N | 360 21.6 N | 351 83.5 63.2
9/5/26 - 1650 79.7 51.4 37 14.3 N | 353 20.8 N | 2 83.5 63.2
9/5/26 - 1640 79.8 51.6 38 12.6 N | 358 20.6 NNE | 15 83.5 63.2
9/5/26 - 1630 79.3 51.6 38 12.3 NNW | 342 19.4 NNW | 337 83.5 63.2
9/5/26 - 1620 79.7 51.5 37 13.0 N | 355 24.0 NNW | 344 83.5 63.2
9/5/26 - 1610 79.8 51.6 37 13.6 N | 357 22.2 N | 0 83.5 63.2
9/5/26 - 1600 79.7 52.0 38 12.2 NNE | 14 21.1 NNE | 25 83.5 63.2
9/5/26 - 1550 80.0 51.1 37 12.7 NNE | 13 22.1 N | 354 83.5 63.2
9/5/26 - 1540 79.5 51.3 37 13.3 N | 11 22.4 N | 352 83.5 63.2
9/5/26 - 1530 79.2 51.8 38 13.3 NNE | 17 21.6 NNE | 15 83.5 63.2
9/5/26 - 1520 80.1 52.1 38 14.7 N | 5 24.0 SE | 146 83.5 63.2
9/5/26 - 1510 80.2 51.0 36 15.1 N | 357 23.8 NNE | 13 83.5 63.2
9/5/26 - 1500 80.2 50.3 35 15.0 N | 7 25.1 N | 354 83.5 63.2
9/5/26 - 1450 80.3 49.0 34 14.7 NNW | 348 25.4 NNW | 344 83.5 63.2
9/5/26 - 1440 80.4 49.2 34 12.5 NNW | 346 25.1 NNW | 335 83.5 63.2
9/5/26 - 1430 80.7 48.9 33 13.6 NNW | 348 24.9 NNW | 330 83.5 63.2
9/5/26 - 1420 81.3 48.5 32 13.8 NNW | 332 23.4 NNW | 330 83.5 63.2
9/5/26 - 1410 81.6 48.1 31 13.9 N | 349 28.7 NNW | 344 83.5 63.2
9/5/26 - 1400 82.2 47.3 30 13.0 NNW | 327 23.6 NW | 310 83.5 63.2
9/5/26 - 1350 81.2 46.7 30 13.3 N | 353 21.8 N | 350 83.5 63.2
9/5/26 - 1340 81.4 45.1 28 12.9 N | 349 23.2 NNW | 334 83.5 63.2
9/5/26 - 1330 81.3 43.9 27 14.0 N | 8 25.4 N | 9 83.5 63.2
9/5/26 - 1320 82.2 46.3 28 13.4 NNW | 334 25.7 NW | 323 83.5 63.2
9/5/26 - 1310 82.8 45.6 27 11.1 NNW | 327 22.9 NNW | 342 83.5 63.2
9/5/26 - 1300 81.8 44.1 27 13.3 NNW | 347 23.4 N | 351 83.0 63.2
9/5/26 - 1250 81.0 43.4 26 13.2 NNW | 341 22.7 NNW | 328 81.8 63.2
9/5/26 - 1240 80.7 43.6 27 13.0 NNW | 347 21.6 NNW | 334 81.8 63.2
9/5/26 - 1230 80.9 44.6 28 14.3 NNW | 330 23.2 NNW | 344 81.6 63.2
9/5/26 - 1220 80.4 43.4 27 12.8 NNW | 338 23.2 N | 351 81.1 63.2
9/5/26 - 1210 80.1 42.8 27 12.9 N | 351 19.4 N | 352 80.8 63.2
9/5/26 - 1200 79.8 41.8 26 15.1 NNW | 342 24.7 NNW | 343 80.8 63.2
9/5/26 - 1150 80.0 41.1 25 15.8 N | 351 23.7 NW | 324 80.8 63.2
9/5/26 - 1140 79.6 40.8 25 16.2 NNW | 338 25.1 N | 0 80.2 63.2
9/5/26 - 1130 78.2 39.3 25 14.3 NNW | 335 25.2 NNW | 344 79.2 63.2
9/5/26 - 1120 77.9 39.8 26 15.3 NNW | 341 23.7 N | 351 78.3 63.2
9/5/26 - 1110 77.0 40.4 27 16.7 NNW | 332 24.8 NNW | 327 77.6 63.2
9/5/26 - 1100 77.0 40.8 27 16.0 NNW | 331 25.1 NNW | 332 77.6 63.2
9/5/26 - 1050 76.2 39.9 27 16.0 NNW | 348 26.2 NNW | 345 76.5 63.2
9/5/26 - 1040 75.7 39.8 27 18.3 N | 350 27.0 NNW | 346 75.8 63.2
9/5/26 - 1030 75.3 37.3 25 16.8 N | 350 25.3 NNW | 347 75.8 63.2
9/5/26 - 1020 74.8 37.4 26 17.2 NNW | 346 23.8 N | 7 75.0 63.2
9/5/26 - 1010 74.4 38.3 27 17.0 N | 349 23.7 N | 354 74.7 63.2
9/5/26 - 1000 74.1 37.3 26 16.5 N | 350 24.0 N | 354 74.3 63.2
9/5/26 - 0950 74.2 35.7 25 15.8 NNW | 345 25.0 N | 353 74.3 63.2
9/5/26 - 0940 73.8 33.5 23 16.1 NNW | 342 22.1 NNW | 334 74.0 63.2
9/5/26 - 0930 73.9 30.1 20 14.9 NNW | 340 22.3 N | 354 74.0 63.2
9/5/26 - 0920 73.8 24.0 15 12.2 NNW | 342 18.3 NNW | 336 73.9 63.2
9/5/26 - 0910 73.3 22.2 15 12.2 NNW | 340 20.0 NNW | 348 73.4 63.2
9/5/26 - 0900 72.7 19.0 13 12.7 N | 349 18.0 NNW | 335 73.0 63.2
9/5/26 - 0850 72.4 18.4 13 13.0 N | 352 18.8 N | 9 72.7 63.2
9/5/26 - 0840 71.5 20.6 14 11.4 N | 354 15.3 N | 350 72.0 63.2
9/5/26 - 0830 70.2 22.2 16 10.9 N | 360 15.4 N | 0 71.2 63.2
9/5/26 - 0820 69.7 22.8 17 9.5 N | 1 14.9 N | 7 69.9 63.2
9/5/26 - 0810 68.9 22.6 17 7.1 N | 356 10.2 N | 0 69.3 63.2
9/5/26 - 0800 68.6 22.4 17 6.0 N | 353 9.6 NNE | 19 68.6 63.2
9/5/26 - 0750 68.1 22.8 18 5.0 N | 356 9.7 N | 1 68.6 63.2
9/5/26 - 0740 66.9 23.0 19 5.4 N | 360 8.0 NNW | 336 67.5 63.2
9/5/26 - 0730 65.7 23.1 20 5.9 N | 354 9.6 N | 0 66.4 63.2
9/5/26 - 0720 65.1 23.1 20 5.4 N | 353 8.4 N | 5 66.4 63.2
9/5/26 - 0710 64.5 22.5 20 4.4 NNW | 338 8.4 N | 354 66.4 63.2
9/5/26 - 0700 64.1 22.0 20 6.8 NNW | 346 12.1 N | 352 66.4 63.2
9/5/26 - 0650 63.7 21.6 20 9.7 N | 0 13.9 N | 8 66.4 63.2
9/5/26 - 0640 63.4 21.3 20 10.4 N | 6 14.0 N | 4 66.4 63.2
Max 82.8 60.4 85 18.3 - 28.7 - 83.5 71.4
Avg 73.1 48.1 46 12.4 - 19.0 - - -
Min 63.4 18.4 13 4.4 - 6.6 - 66.4 63.2